This is the latest recevied weather packets stored in our database for station/object EC2UT-13. If no packets are shown the sender has not sent any weather packets the latest 10 day(s).
| Time | Temp. | Humidity | Pressure | Rain* | Wind** | Luminosity | Snow |
|---|---|---|---|---|---|---|---|
| 1777661416 | 19.44° C | 48% | 1021.4 hPa | 0 mm | - | - | - |
| 1777659017 | 20.56° C | 46% | 1021.1 hPa | 0 mm | - | - | - |
| 1777655416 | 21.11° C | 46% | 1020.9 hPa | 0 mm | - | - | - |
| 1777654216 | 21.67° C | 45% | 1020.5 hPa | 0 mm | - | - | - |
| 1777653017 | 21.67° C | 45% | 1020.4 hPa | 0 mm | - | - | - |
| 1777651276 | 22.22° C | 44% | 1020.1 hPa | 0 mm | - | - | - |
| 1777650015 | 22.78° C | 42% | 1019.7 hPa | 0 mm | - | - | - |
| 1777648218 | 23.89° C | 40% | 1019.9 hPa | 0 mm | - | - | - |
| 1777644618 | 24.44° C | 40% | 1020 hPa | 0 mm | - | - | - |
| 1777642238 | 24.44° C | 41% | 1020.4 hPa | 0 mm | - | - | - |
| 1777638638 | 23.33° C | 43% | 1020.8 hPa | 0 mm | - | - | - |
| 1777636218 | 22.22° C | 44% | 1021.2 hPa | 0 mm | - | - | - |
| 1777633218 | 21.11° C | 46% | 1021.9 hPa | 0 mm | - | - | - |
| 1777627818 | 18.89° C | 49% | 1022.4 hPa | 0 mm | - | - | - |
| 1777626618 | 18.33° C | 51% | 1022.3 hPa | 0 mm | - | - | - |
| 1777626018 | 17.78° C | 51% | 1022.2 hPa | 0 mm | - | - | - |
| 1777618818 | 16.67° C | 58% | 1021.6 hPa | 0 mm | - | - | - |
| 1777615218 | 16.11° C | 58% | 1021.1 hPa | 0 mm | - | - | - |
| 1777602017 | 16.67° C | 58% | 1020 hPa | 0 mm | - | - | - |
| 1777601417 | 16.67° C | 58% | 1020 hPa | 0 mm | - | - | - |
| 1777598457 | 17.22° C | 57% | 1019.9 hPa | 0 mm | - | - | - |
| 1777587036 | 20° C | 50% | 1018.2 hPa | 0 mm | - | - | - |
| 1777586456 | 20° C | 49% | 1018.2 hPa | 0 mm | - | - | - |
| 1777581016 | 23.33° C | 34% | 1017.3 hPa | 0 mm | - | - | - |
| 1777579236 | 23.89° C | 32% | 1016.8 hPa | 0 mm | - | - | - |
* Rain latest hour (hover to see other rain measurements)
** Current wind speed in m/s (hover to see current wind gust speed)